TVS4459 VTSG-VAAH
Flight info
| Callsign | TVS4459 |
|---|---|
| Flight time | N/A |
| Altitude | 38000 |
| Route | PUT2F PUT L759 LAMBU L524 NNP/N0415F240 G472 BODAR BODAR1A |
| Aircraft | A320/M-SDE3FGHIRWY/LB1 |
Departure
| Time | 2026-05-04 07:27 |
|---|---|
| Airport | Krabi International Airport (VTSG) |
Arrival
| Time | N/A |
|---|---|
| Airport | Sardar Vallabh Patel International Airport (VAAH) |
| Time | Latitude | Longitude | Altitude | Speed | Heading |
|---|---|---|---|---|---|
| 2026-05-04 07:09 | 8.10500 | 98.97678 | 103 ft | 0 kts | 230° |
| 2026-05-04 07:20 | 8.10512 | 98.97692 | 156 ft | 4 kts | 228° |
| 2026-05-04 07:22 | 8.10585 | 98.97731 | 100 ft | 0 kts | 141° |
| 2026-05-04 07:24 | 8.10554 | 98.97757 | 102 ft | 8 kts | 140° |
| 2026-05-04 07:24 | 8.10514 | 98.97791 | 102 ft | 7 kts | 141° |
| 2026-05-04 07:25 | 8.10497 | 98.97828 | 102 ft | 6 kts | 87° |
| 2026-05-04 07:26 | 8.09529 | 98.98931 | 101 ft | 159 kts | 141° |
| 2026-05-04 07:27 | 8.08623 | 98.99679 | 609 ft | 167 kts | 142° |
| 2026-05-04 07:27 | 8.07726 | 99.00386 | 1349 ft | 167 kts | 150° |
| 2026-05-04 07:27 | 8.06542 | 99.00563 | 1768 ft | 189 kts | 197° |
| 2026-05-04 07:27 | 8.05409 | 98.99770 | 2109 ft | 215 kts | 232° |
| 2026-05-04 07:28 | 8.04916 | 98.98283 | 2445 ft | 242 kts | 272° |
| 2026-05-04 07:28 | 8.05504 | 98.96672 | 3117 ft | 252 kts | 306° |
| 2026-05-04 07:28 | 8.06641 | 98.95311 | 3975 ft | 255 kts | 315° |
| 2026-05-04 07:28 | 8.07930 | 98.94061 | 4859 ft | 258 kts | 319° |
| 2026-05-04 07:29 | 8.09226 | 98.92794 | 5741 ft | 262 kts | 308° |
| 2026-05-04 07:29 | 8.09924 | 98.91095 | 6545 ft | 269 kts | 275° |
| 2026-05-04 07:29 | 8.09899 | 98.89159 | 7119 ft | 286 kts | 268° |
| 2026-05-04 07:29 | 8.09905 | 98.87120 | 7859 ft | 294 kts | 271° |
| 2026-05-04 07:30 | 8.09977 | 98.85039 | 8708 ft | 299 kts | 272° |
| 2026-05-04 07:30 | 8.10066 | 98.82931 | 9568 ft | 303 kts | 272° |
| 2026-05-04 07:30 | 8.10154 | 98.80785 | 10265 ft | 313 kts | 272° |
| 2026-05-04 07:30 | 8.10236 | 98.78506 | 10536 ft | 337 kts | 272° |
| 2026-05-04 07:31 | 8.10310 | 98.76070 | 10828 ft | 357 kts | 271° |